Time;durP1;ratioP1;P1;durP2;ratioP2;P2;SDS_P1;SDS_P2;PMS_P1;PMS_P2;Temp;Humidity;BMP_temperature;BMP_pressure;BME280_temperature;BME280_humidity;BME280_pressure;Samples;Min_cycle;Max_cycle;Signal;HPM_P1;HPM_P2
2022/05/25 00:01:22;;;;;;;9.97;9.07;;;;;;;;;;5054801;28;20292;-71
2022/05/25 00:03:48;;;;;;;9.83;9.03;;;;;;;;;;5048971;28;20751;-72
2022/05/25 00:06:16;;;;;;;10.53;9.63;;;;;;;;;;5052110;28;20268;-72
2022/05/25 00:08:44;;;;;;;10.47;9.53;;;;;;;;;;5048577;28;20224;-72
2022/05/25 00:11:16;;;;;;;10.60;9.70;;;;;;;;;;5045763;28;20218;-71
2022/05/25 00:13:42;;;;;;;9.57;8.80;;;;;;;;;;5060636;28;20219;-70
2022/05/25 00:16:09;;;;;;;10.33;9.53;;;;;;;;;;5046818;28;20218;-70
2022/05/25 00:18:35;;;;;;;10.20;9.40;;;;;;;;;;5029883;28;20238;-70
2022/05/25 00:21:03;;;;;;;10.13;9.33;;;;;;;;;;5035399;28;20215;-72
2022/05/25 00:23:28;;;;;;;9.70;8.83;;;;;;;;;;5040311;28;20223;-73
2022/05/25 00:25:54;;;;;;;10.37;9.37;;;;;;;;;;5056428;28;20298;-72
2022/05/25 00:28:20;;;;;;;10.23;9.23;;;;;;;;;;5037792;28;20223;-71
2022/05/25 00:30:45;;;;;;;10.67;9.87;;;;;;;;;;5044412;28;20223;-72
2022/05/25 00:33:13;;;;;;;10.63;9.77;;;;;;;;;;5041542;28;20219;-71
2022/05/25 00:35:43;;;;;;;11.03;10.13;;;;;;;;;;5034293;28;20223;-70
2022/05/25 00:38:09;;;;;;;10.77;9.83;;;;;;;;;;5042373;28;20784;-72
2022/05/25 00:40:37;;;;;;;10.80;9.93;;;;;;;;;;5056915;28;20243;-72
2022/05/25 00:43:05;;;;;;;10.20;9.40;;;;;;;;;;5039955;28;20246;-72
2022/05/25 00:45:37;;;;;;;10.73;9.73;;;;;;;;;;5019466;28;20227;-71
2022/05/25 00:48:05;;;;;;;10.53;9.73;;;;;;;;;;5046430;28;20273;-71
2022/05/25 00:51:12;;;;;;;10.10;9.30;;;;;;;;;;5045145;28;20230;-71
2022/05/25 00:53:18;;;;;;;10.27;9.20;;;;;;;;;;5044520;28;20223;-72
2022/05/25 00:55:49;;;;;;;10.53;9.73;;;;;;;;;;5044319;28;20238;-72
2022/05/25 00:58:14;;;;;;;9.87;8.97;;;;;;;;;;5043669;28;20227;-72
2022/05/25 01:00:42;;;;;;;10.20;9.40;;;;;;;;;;5035393;28;20223;-72
2022/05/25 01:03:10;;;;;;;9.97;9.17;;;;;;;;;;5045833;28;20223;-70
2022/05/25 01:06:03;;;;;;;9.80;9.00;;;;;;;;;;5037754;28;20223;-70
2022/05/25 01:08:38;;;;;;;9.83;9.03;;;;;;;;;;5057193;28;23106;-72
2022/05/25 01:11:22;;;;;;;9.67;8.97;;;;;;;;;;5056868;28;20318;-74
2022/05/25 01:14:13;;;;;;;9.80;8.90;;;;;;;;;;5058317;28;20227;-71
2022/05/25 01:16:56;;;;;;;9.73;8.73;;;;;;;;;;5055606;28;20226;-71
2022/05/25 01:19:56;;;;;;;9.37;8.67;;;;;;;;;;5054286;28;23018;-72
2022/05/25 01:22:48;;;;;;;9.80;9.00;;;;;;;;;;5052099;28;20234;-72
2022/05/25 01:25:56;;;;;;;9.20;8.47;;;;;;;;;;5029640;28;20226;-72
2022/05/25 01:28:38;;;;;;;9.43;8.63;;;;;;;;;;5053840;28;20235;-73
2022/05/25 01:31:08;;;;;;;9.93;9.03;;;;;;;;;;5057789;28;20219;-71
2022/05/25 01:33:36;;;;;;;9.57;8.77;;;;;;;;;;5055756;28;20227;-71
2022/05/25 01:36:07;;;;;;;9.73;8.90;;;;;;;;;;5070923;28;20603;-71
2022/05/25 01:39:01;;;;;;;9.63;8.90;;;;;;;;;;5057315;28;20230;-72
2022/05/25 01:41:38;;;;;;;10.27;9.27;;;;;;;;;;5029815;28;20546;-71
2022/05/25 01:44:14;;;;;;;11.20;10.10;;;;;;;;;;5057986;28;20238;-71
2022/05/25 01:46:46;;;;;;;10.30;9.30;;;;;;;;;;5045911;28;20268;-71
2022/05/25 01:49:15;;;;;;;10.20;9.40;;;;;;;;;;5028718;28;20237;-71
2022/05/25 01:51:45;;;;;;;10.73;9.87;;;;;;;;;;5039335;28;20227;-72
2022/05/25 01:54:12;;;;;;;9.83;9.03;;;;;;;;;;5027999;28;20234;-71
2022/05/25 01:56:41;;;;;;;10.93;10.03;;;;;;;;;;5041526;28;20306;-72
2022/05/25 01:59:10;;;;;;;10.67;9.63;;;;;;;;;;5045353;28;20231;-72
2022/05/25 02:01:35;;;;;;;9.90;9.10;;;;;;;;;;5026663;28;20223;-71
2022/05/25 02:06:58;;;;;;;10.43;9.53;;;;;;;;;;5035685;28;20223;-71
2022/05/25 02:09:41;;;;;;;10.83;9.93;;;;;;;;;;5046295;28;20317;-72
2022/05/25 02:12:42;;;;;;;10.87;9.97;;;;;;;;;;5051599;28;20232;-71
2022/05/25 02:15:10;;;;;;;10.63;9.73;;;;;;;;;;5048996;28;20233;-71
2022/05/25 02:18:05;;;;;;;10.93;10.07;;;;;;;;;;5049874;28;20684;-71
2022/05/25 02:20:45;;;;;;;10.67;9.83;;;;;;;;;;5072437;28;20231;-71
2022/05/25 02:23:23;;;;;;;10.70;9.70;;;;;;;;;;5058570;28;20230;-71
2022/05/25 02:25:56;;;;;;;11.07;10.10;;;;;;;;;;5035189;28;20269;-72
2022/05/25 02:28:32;;;;;;;11.00;10.20;;;;;;;;;;5052088;28;21380;-71
2022/05/25 02:30:58;;;;;;;10.83;9.83;;;;;;;;;;5042029;28;20588;-70
2022/05/25 02:33:46;;;;;;;10.53;9.67;;;;;;;;;;5040896;28;20226;-72
2022/05/25 02:36:12;;;;;;;10.70;9.77;;;;;;;;;;5062478;28;20722;-71
2022/05/25 02:38:37;;;;;;;11.77;10.67;;;;;;;;;;5035193;28;20234;-71
2022/05/25 02:41:11;;;;;;;11.20;10.20;;;;;;;;;;5011663;28;20219;-71
2022/05/25 02:43:39;;;;;;;11.30;10.30;;;;;;;;;;5045043;28;20280;-71
2022/05/25 02:46:06;;;;;;;11.00;10.00;;;;;;;;;;5049402;28;20223;-71
2022/05/25 02:48:35;;;;;;;11.73;10.73;;;;;;;;;;5059577;28;20235;-71
2022/05/25 02:51:01;;;;;;;10.73;9.83;;;;;;;;;;5057952;28;20346;-70
2022/05/25 02:53:29;;;;;;;11.83;10.77;;;;;;;;;;5062069;28;20227;-72
2022/05/25 02:55:54;;;;;;;11.57;10.57;;;;;;;;;;5050534;28;20230;-71
2022/05/25 02:58:20;;;;;;;12.13;11.03;;;;;;;;;;5070018;28;20232;-71
2022/05/25 03:00:48;;;;;;;12.03;11.03;;;;;;;;;;5061856;28;20230;-72
2022/05/25 03:03:13;;;;;;;11.60;10.60;;;;;;;;;;5064084;28;20214;-72
2022/05/25 03:05:40;;;;;;;12.27;11.07;;;;;;;;;;5059912;28;20229;-72
2022/05/25 03:08:08;;;;;;;11.63;10.53;;;;;;;;;;5045549;28;20222;-71
2022/05/25 03:10:38;;;;;;;11.73;10.73;;;;;;;;;;5049491;28;20295;-71
2022/05/25 03:13:08;;;;;;;11.27;10.27;;;;;;;;;;5044081;28;20269;-72
2022/05/25 03:15:35;;;;;;;11.17;10.17;;;;;;;;;;5063560;28;20233;-71
2022/05/25 03:18:03;;;;;;;11.80;10.70;;;;;;;;;;5067754;27;20245;-72
2022/05/25 03:20:29;;;;;;;11.60;10.60;;;;;;;;;;5052515;28;20306;-73
2022/05/25 03:22:54;;;;;;;11.77;10.67;;;;;;;;;;5025935;28;20223;-73
2022/05/25 03:25:20;;;;;;;12.30;11.30;;;;;;;;;;5060408;28;20218;-71
2022/05/25 03:27:45;;;;;;;12.53;11.23;;;;;;;;;;5052998;28;20223;-71
2022/05/25 03:30:13;;;;;;;12.30;11.20;;;;;;;;;;5058744;28;20223;-72
2022/05/25 03:32:38;;;;;;;12.43;11.43;;;;;;;;;;5046604;28;20284;-72
2022/05/25 03:35:04;;;;;;;12.83;11.73;;;;;;;;;;5060520;28;20214;-71
2022/05/25 03:37:32;;;;;;;13.33;12.03;;;;;;;;;;5052804;28;20230;-72
2022/05/25 03:39:57;;;;;;;11.53;10.63;;;;;;;;;;5045823;28;20257;-71
2022/05/25 03:42:25;;;;;;;11.70;10.70;;;;;;;;;;5059219;28;20223;-71
2022/05/25 03:44:55;;;;;;;12.07;11.07;;;;;;;;;;5057542;28;20650;-70
2022/05/25 03:47:21;;;;;;;11.70;10.73;;;;;;;;;;5026223;28;20198;-71
2022/05/25 03:49:49;;;;;;;11.97;10.87;;;;;;;;;;5048704;28;20742;-70
2022/05/25 03:52:19;;;;;;;11.53;10.53;;;;;;;;;;5067249;28;20234;-70
2022/05/25 03:54:47;;;;;;;11.73;10.73;;;;;;;;;;5043928;28;20540;-70
2022/05/25 03:57:13;;;;;;;13.23;11.97;;;;;;;;;;5063449;28;20762;-71
2022/05/25 03:59:38;;;;;;;12.27;11.10;;;;;;;;;;5032458;28;20227;-71
2022/05/25 04:02:06;;;;;;;12.77;11.60;;;;;;;;;;5059428;28;20225;-70
2022/05/25 04:04:31;;;;;;;12.23;11.23;;;;;;;;;;5046075;28;20223;-72
2022/05/25 04:06:59;;;;;;;13.03;11.83;;;;;;;;;;5063882;28;20350;-70
2022/05/25 04:09:24;;;;;;;12.23;11.13;;;;;;;;;;5060370;28;20318;-70
2022/05/25 04:11:50;;;;;;;13.43;12.23;;;;;;;;;;5059620;28;20223;-70
2022/05/25 04:14:18;;;;;;;12.33;11.27;;;;;;;;;;5028243;28;20273;-70
2022/05/25 04:16:44;;;;;;;12.93;11.83;;;;;;;;;;5050938;28;20598;-71
2022/05/25 04:19:10;;;;;;;13.10;12.00;;;;;;;;;;5054644;28;20240;-70
2022/05/25 04:21:37;;;;;;;12.57;11.50;;;;;;;;;;5048068;28;20223;-70
2022/05/25 04:24:05;;;;;;;13.07;11.63;;;;;;;;;;5058331;28;20258;-71
2022/05/25 04:26:33;;;;;;;12.83;11.63;;;;;;;;;;5058162;28;20230;-71
2022/05/25 04:29:00;;;;;;;13.27;12.07;;;;;;;;;;5061484;28;20231;-70
2022/05/25 04:31:26;;;;;;;13.87;12.67;;;;;;;;;;5053912;28;20272;-71
2022/05/25 04:33:54;;;;;;;12.97;11.77;;;;;;;;;;5031826;28;20214;-71
2022/05/25 04:36:20;;;;;;;13.03;11.83;;;;;;;;;;5049565;28;20209;-71
2022/05/25 04:38:46;;;;;;;13.87;12.57;;;;;;;;;;5060322;28;20605;-69
2022/05/25 04:41:11;;;;;;;13.93;12.67;;;;;;;;;;5061817;28;20222;-71
2022/05/25 04:43:40;;;;;;;13.73;12.53;;;;;;;;;;5040721;28;20219;-70
2022/05/25 04:46:07;;;;;;;14.03;12.73;;;;;;;;;;5046885;28;20293;-70
2022/05/25 04:48:35;;;;;;;13.60;12.40;;;;;;;;;;5045276;28;20223;-70
2022/05/25 04:51:00;;;;;;;12.47;11.27;;;;;;;;;;5056478;28;20305;-70
2022/05/25 04:53:30;;;;;;;13.30;12.10;;;;;;;;;;5061305;28;20278;-72
2022/05/25 04:58:46;;;;;;;12.83;11.67;;;;;;;;;;5059783;28;20615;-71
2022/05/25 05:01:16;;;;;;;12.97;11.87;;;;;;;;;;5040546;28;20625;-72
2022/05/25 05:03:44;;;;;;;13.27;12.17;;;;;;;;;;5033275;28;20222;-70
2022/05/25 05:06:09;;;;;;;13.90;12.67;;;;;;;;;;5054646;28;20214;-70
2022/05/25 05:08:35;;;;;;;13.33;12.13;;;;;;;;;;5041143;28;20612;-71
2022/05/25 05:11:11;;;;;;;12.83;11.63;;;;;;;;;;5025807;28;20342;-71
2022/05/25 05:13:37;;;;;;;12.73;11.63;;;;;;;;;;5041595;28;20277;-69
2022/05/25 05:16:07;;;;;;;13.80;12.60;;;;;;;;;;5034235;28;20226;-70
2022/05/25 05:18:35;;;;;;;13.17;11.97;;;;;;;;;;5039553;28;20701;-72
2022/05/25 05:21:29;;;;;;;12.63;11.50;;;;;;;;;;5052532;28;20305;-72
2022/05/25 05:24:06;;;;;;;12.70;11.53;;;;;;;;;;5045119;28;20326;-71
2022/05/25 05:26:32;;;;;;;13.30;12.10;;;;;;;;;;5059571;28;20245;-73
2022/05/25 05:28:58;;;;;;;12.43;11.37;;;;;;;;;;5058452;28;20233;-71
2022/05/25 05:31:28;;;;;;;13.50;12.20;;;;;;;;;;5056303;28;20301;-71
2022/05/25 05:33:56;;;;;;;13.00;11.90;;;;;;;;;;5051208;28;20284;-73
2022/05/25 05:36:29;;;;;;;12.70;11.53;;;;;;;;;;5072877;28;20262;-72
2022/05/25 05:38:58;;;;;;;13.03;11.83;;;;;;;;;;5033601;28;20245;-72
2022/05/25 05:41:25;;;;;;;12.90;11.70;;;;;;;;;;5034041;28;20227;-71
2022/05/25 05:43:52;;;;;;;12.57;11.37;;;;;;;;;;5039971;28;20219;-70
2022/05/25 05:46:17;;;;;;;12.73;11.53;;;;;;;;;;5031307;28;20215;-71
2022/05/25 05:48:43;;;;;;;12.80;11.70;;;;;;;;;;5029212;28;20219;-72
2022/05/25 05:51:11;;;;;;;11.07;10.23;;;;;;;;;;5059974;28;20218;-70
2022/05/25 05:53:37;;;;;;;12.23;11.03;;;;;;;;;;5051584;28;20211;-71
2022/05/25 05:56:05;;;;;;;12.00;10.90;;;;;;;;;;5030424;28;20247;-72
2022/05/25 05:58:33;;;;;;;11.93;10.83;;;;;;;;;;5050645;28;20392;-71
2022/05/25 06:00:59;;;;;;;11.70;10.70;;;;;;;;;;5064688;28;20230;-71
2022/05/25 06:03:26;;;;;;;10.93;10.03;;;;;;;;;;5060645;28;20218;-71
2022/05/25 06:05:57;;;;;;;11.10;10.10;;;;;;;;;;5022963;28;20700;-72
2022/05/25 06:08:26;;;;;;;11.20;10.20;;;;;;;;;;5048338;28;20211;-72
2022/05/25 06:10:51;;;;;;;10.33;9.33;;;;;;;;;;5061892;28;20721;-72
2022/05/25 06:13:17;;;;;;;9.70;8.83;;;;;;;;;;5024711;28;20261;-70
2022/05/25 06:21:19;;;;;;;9.23;8.43;;;;;;;;;;5047398;28;20222;-69
2022/05/25 06:23:44;;;;;;;9.82;8.82;;;;;;;;;;5040692;28;20218;-71
2022/05/25 06:26:10;;;;;;;8.98;8.20;;;;;;;;;;5061254;28;20301;-70
2022/05/25 06:28:35;;;;;;;8.30;7.60;;;;;;;;;;5043762;28;20318;-71
2022/05/25 06:31:00;;;;;;;8.40;7.60;;;;;;;;;;5064526;28;20229;-70
2022/05/25 06:33:28;;;;;;;8.23;7.43;;;;;;;;;;5045586;28;20234;-72
2022/05/25 06:35:59;;;;;;;8.15;7.43;;;;;;;;;;5047103;28;20591;-70
2022/05/25 06:38:24;;;;;;;8.88;6.95;;;;;;;;;;5044004;28;20227;-71
2022/05/25 06:40:52;;;;;;;8.45;7.63;;;;;;;;;;5028014;28;20233;-70
2022/05/25 06:43:17;;;;;;;8.23;7.43;;;;;;;;;;5056198;28;20234;-70
2022/05/25 06:45:43;;;;;;;7.63;7.03;;;;;;;;;;5061943;28;20226;-70
2022/05/25 06:48:08;;;;;;;7.20;6.33;;;;;;;;;;5043459;28;20232;-72
2022/05/25 06:50:34;;;;;;;7.47;6.63;;;;;;;;;;5045899;28;20222;-71
2022/05/25 06:52:59;;;;;;;7.28;6.60;;;;;;;;;;5034629;28;20673;-70
2022/05/25 06:55:29;;;;;;;7.55;6.75;;;;;;;;;;5042687;28;20306;-71
2022/05/25 06:57:55;;;;;;;8.68;6.93;;;;;;;;;;5068091;28;20245;-71
2022/05/25 07:00:20;;;;;;;6.57;6.00;;;;;;;;;;5059279;28;20223;-70
2022/05/25 07:02:48;;;;;;;6.13;5.63;;;;;;;;;;5068840;28;20231;-69
2022/05/25 07:05:14;;;;;;;6.32;5.70;;;;;;;;;;5030598;28;20230;-70
2022/05/25 07:07:39;;;;;;;6.68;6.07;;;;;;;;;;5063324;28;20691;-72
2022/05/25 07:10:05;;;;;;;6.72;5.63;;;;;;;;;;5063294;28;20384;-71
2022/05/25 07:12:32;;;;;;;5.88;5.30;;;;;;;;;;5028736;28;20266;-71
2022/05/25 07:15:15;;;;;;;5.00;4.35;;;;;;;;;;5057465;28;20689;-71
2022/05/25 07:17:42;;;;;;;5.45;4.97;;;;;;;;;;5062081;27;20352;-70
2022/05/25 07:20:09;;;;;;;7.45;5.10;;;;;;;;;;5065159;28;20219;-71
2022/05/25 07:22:36;;;;;;;5.47;4.95;;;;;;;;;;5027731;28;20215;-72
2022/05/25 07:25:01;;;;;;;4.88;4.47;;;;;;;;;;5062774;28;20222;-70
2022/05/25 07:27:26;;;;;;;5.13;4.63;;;;;;;;;;5035909;28;20237;-72
2022/05/25 07:29:52;;;;;;;4.50;4.10;;;;;;;;;;5048060;28;20234;-72
2022/05/25 07:32:18;;;;;;;4.40;3.80;;;;;;;;;;5050986;28;20227;-71
2022/05/25 07:34:54;;;;;;;4.10;3.80;;;;;;;;;;5041826;28;20219;-71
2022/05/25 07:37:38;;;;;;;4.53;4.10;;;;;;;;;;5048678;28;20222;-71
2022/05/25 07:40:11;;;;;;;5.05;4.57;;;;;;;;;;5059085;28;20590;-71
2022/05/25 07:42:41;;;;;;;5.13;4.72;;;;;;;;;;5050083;28;20227;-70
2022/05/25 07:45:07;;;;;;;5.07;4.57;;;;;;;;;;5048191;28;20219;-71
2022/05/25 07:47:39;;;;;;;8.73;5.72;;;;;;;;;;5056177;28;20223;-70
2022/05/25 07:50:05;;;;;;;6.18;5.68;;;;;;;;;;5018472;28;20326;-70
2022/05/25 07:52:38;;;;;;;6.22;5.63;;;;;;;;;;5039868;28;20596;-71
2022/05/25 07:55:05;;;;;;;6.38;5.75;;;;;;;;;;5059502;28;20218;-70
2022/05/25 07:57:41;;;;;;;6.30;5.57;;;;;;;;;;5048781;28;20280;-70
2022/05/25 08:00:10;;;;;;;6.78;5.38;;;;;;;;;;5018949;28;20289;-73
2022/05/25 08:05:44;;;;;;;7.35;5.68;;;;;;;;;;5057672;28;20227;-70
2022/05/25 08:08:21;;;;;;;5.95;5.43;;;;;;;;;;5055965;28;20250;-70
2022/05/25 08:10:51;;;;;;;6.28;5.30;;;;;;;;;;5041173;28;20273;-69
2022/05/25 08:13:17;;;;;;;5.82;5.20;;;;;;;;;;5023118;28;20245;-71
2022/05/25 08:15:44;;;;;;;5.35;4.80;;;;;;;;;;5032637;28;20218;-70
2022/05/25 08:18:15;;;;;;;6.68;6.13;;;;;;;;;;5026391;28;20234;-72
2022/05/25 08:20:46;;;;;;;6.57;6.07;;;;;;;;;;5034359;28;20218;-70
2022/05/25 08:23:14;;;;;;;6.32;5.75;;;;;;;;;;5064923;28;20222;-71
2022/05/25 08:25:42;;;;;;;7.07;6.15;;;;;;;;;;5020236;28;20685;-71
2022/05/25 08:28:10;;;;;;;6.25;5.43;;;;;;;;;;5050726;28;20238;-71
2022/05/25 08:30:37;;;;;;;5.95;5.43;;;;;;;;;;5040314;28;20311;-70
2022/05/25 08:33:04;;;;;;;7.07;5.00;;;;;;;;;;5061679;28;20257;-72
2022/05/25 08:35:37;;;;;;;6.43;5.10;;;;;;;;;;5061670;28;20653;-70
2022/05/25 08:38:03;;;;;;;7.70;4.93;;;;;;;;;;5060026;28;20238;-70
2022/05/25 08:40:30;;;;;;;4.03;3.72;;;;;;;;;;5057260;28;20222;-71
2022/05/25 08:43:05;;;;;;;4.82;4.32;;;;;;;;;;5025128;28;20231;-70
2022/05/25 08:45:57;;;;;;;5.35;4.82;;;;;;;;;;5029283;28;20222;-72
2022/05/25 08:48:25;;;;;;;5.13;4.63;;;;;;;;;;5037983;28;20235;-70
2022/05/25 08:50:57;;;;;;;6.50;4.93;;;;;;;;;;5034319;28;20211;-70
2022/05/25 08:53:27;;;;;;;5.07;4.68;;;;;;;;;;5032373;27;20716;-70
2022/05/25 08:56:15;;;;;;;5.30;4.07;;;;;;;;;;5055488;28;20223;-71
2022/05/25 08:59:04;;;;;;;5.07;4.47;;;;;;;;;;5064462;28;20231;-70
2022/05/25 09:01:42;;;;;;;5.43;4.15;;;;;;;;;;5026862;28;20223;-71
2022/05/25 09:04:18;;;;;;;3.45;3.10;;;;;;;;;;5022946;28;20224;-71
2022/05/25 09:06:55;;;;;;;3.20;2.65;;;;;;;;;;5068348;28;20254;-71
2022/05/25 09:09:25;;;;;;;2.70;2.50;;;;;;;;;;5051832;28;20708;-70
2022/05/25 09:12:04;;;;;;;2.50;2.30;;;;;;;;;;5040383;28;20224;-71
2022/05/25 09:14:46;;;;;;;2.58;2.38;;;;;;;;;;5056356;28;20222;-71
2022/05/25 09:17:18;;;;;;;2.80;1.98;;;;;;;;;;5057076;28;20213;-71
2022/05/25 09:19:44;;;;;;;2.22;1.85;;;;;;;;;;5027896;28;20258;-71
2022/05/25 09:22:14;;;;;;;2.65;1.95;;;;;;;;;;5057628;28;20280;-71
2022/05/25 09:24:40;;;;;;;1.90;1.80;;;;;;;;;;5025105;28;20223;-70
2022/05/25 09:27:09;;;;;;;2.65;1.80;;;;;;;;;;5008254;27;20216;-71
2022/05/25 09:29:35;;;;;;;2.28;1.55;;;;;;;;;;5039201;28;20250;-70
2022/05/25 09:32:16;;;;;;;1.70;1.60;;;;;;;;;;5062041;28;20234;-70
2022/05/25 09:35:01;;;;;;;2.63;1.70;;;;;;;;;;5044742;28;20676;-71
2022/05/25 09:37:57;;;;;;;2.15;1.65;;;;;;;;;;5057262;28;20642;-71
2022/05/25 09:40:34;;;;;;;1.40;1.30;;;;;;;;;;5065838;28;20273;-71
2022/05/25 09:43:04;;;;;;;1.50;1.40;;;;;;;;;;5064669;28;20254;-72
2022/05/25 09:45:48;;;;;;;1.48;1.35;;;;;;;;;;5052897;28;20309;-70
2022/05/25 09:48:17;;;;;;;1.30;1.20;;;;;;;;;;5036764;28;20657;-71
2022/05/25 09:50:46;;;;;;;1.38;1.27;;;;;;;;;;5047052;28;20207;-72
2022/05/25 09:53:15;;;;;;;1.35;1.10;;;;;;;;;;5058151;28;20215;-71
2022/05/25 09:55:45;;;;;;;1.77;1.10;;;;;;;;;;5049031;28;20234;-71
2022/05/25 09:58:30;;;;;;;1.20;1.10;;;;;;;;;;5046107;28;20718;-71
2022/05/25 10:01:02;;;;;;;1.88;0.85;;;;;;;;;;5058727;28;20214;-70
2022/05/25 10:03:35;;;;;;;1.00;0.90;;;;;;;;;;5012902;28;20917;-71
2022/05/25 10:06:01;;;;;;;1.65;1.20;;;;;;;;;;5056253;28;20223;-71
2022/05/25 10:08:30;;;;;;;2.50;0.98;;;;;;;;;;5015597;28;20215;-71
2022/05/25 10:11:07;;;;;;;1.13;1.00;;;;;;;;;;5062242;27;20294;-71
2022/05/25 10:13:38;;;;;;;1.58;0.90;;;;;;;;;;5047706;28;20222;-71
2022/05/25 10:16:26;;;;;;;1.58;1.00;;;;;;;;;;5030842;28;20226;-70
2022/05/25 10:18:52;;;;;;;2.10;0.80;;;;;;;;;;5067728;28;20245;-70
2022/05/25 10:21:50;;;;;;;1.77;0.80;;;;;;;;;;5055324;28;20306;-70
2022/05/25 10:24:24;;;;;;;1.08;1.00;;;;;;;;;;5062681;28;20230;-71
2022/05/25 10:26:59;;;;;;;0.80;0.80;;;;;;;;;;5063657;28;20365;-71
2022/05/25 10:38:28;;;;;;;1.55;0.98;;;;;;;;;;5051629;28;20219;-72
2022/05/25 10:40:55;;;;;;;1.17;0.90;;;;;;;;;;5066631;28;20246;-70
2022/05/25 10:43:26;;;;;;;1.42;0.70;;;;;;;;;;5055984;28;20306;-69
2022/05/25 10:45:51;;;;;;;0.93;0.80;;;;;;;;;;5057855;28;20306;-70
2022/05/25 10:48:34;;;;;;;0.70;0.70;;;;;;;;;;5027358;28;20700;-72
2022/05/25 10:51:08;;;;;;;2.38;0.80;;;;;;;;;;5049109;28;20734;-72
2022/05/25 10:57:12;;;;;;;1.05;0.70;;;;;;;;;;5057400;28;20306;-71
2022/05/25 10:59:43;;;;;;;0.95;0.60;;;;;;;;;;5065055;28;20230;-70
2022/05/25 11:02:21;;;;;;;1.45;0.63;;;;;;;;;;5059288;28;20216;-73
2022/05/25 11:05:15;;;;;;;0.82;0.63;;;;;;;;;;5062810;28;20339;-72
2022/05/25 11:07:44;;;;;;;0.52;0.50;;;;;;;;;;5057163;28;20409;-72
2022/05/25 11:10:12;;;;;;;1.08;0.60;;;;;;;;;;5061837;28;20253;-71
2022/05/25 11:13:03;;;;;;;0.70;0.52;;;;;;;;;;5061538;28;20716;-70
2022/05/25 11:15:33;;;;;;;1.05;0.57;;;;;;;;;;5063854;28;20280;-71
2022/05/25 11:18:22;;;;;;;0.98;0.60;;;;;;;;;;5067182;27;20570;-71
2022/05/25 11:21:08;;;;;;;1.13;0.80;;;;;;;;;;5049207;28;20231;-71
2022/05/25 11:23:38;;;;;;;1.05;0.60;;;;;;;;;;5042515;28;20233;-74
2022/05/25 11:26:24;;;;;;;2.10;0.70;;;;;;;;;;5044315;28;20284;-70
2022/05/25 11:28:53;;;;;;;1.13;0.65;;;;;;;;;;5060041;28;20310;-71
2022/05/25 11:31:21;;;;;;;0.85;0.80;;;;;;;;;;5062757;28;20242;-72
2022/05/25 11:34:02;;;;;;;0.73;0.60;;;;;;;;;;5060807;28;20310;-71
2022/05/25 11:36:51;;;;;;;2.45;0.80;;;;;;;;;;5060224;28;20301;-71
2022/05/25 11:39:40;;;;;;;1.00;0.70;;;;;;;;;;5062329;27;20303;-70
2022/05/25 11:42:27;;;;;;;1.67;0.80;;;;;;;;;;5063136;28;20240;-71
2022/05/25 11:45:17;;;;;;;2.40;1.00;;;;;;;;;;5052589;28;20223;-72
2022/05/25 11:48:11;;;;;;;1.95;0.90;;;;;;;;;;5051062;28;20238;-72
2022/05/25 11:50:44;;;;;;;2.35;0.90;;;;;;;;;;5064821;28;20302;-70
2022/05/25 11:53:46;;;;;;;1.67;1.20;;;;;;;;;;5063456;28;20703;-72
2022/05/25 11:56:49;;;;;;;2.72;1.00;;;;;;;;;;5049842;28;20229;-72
2022/05/25 12:00:04;;;;;;;1.00;1.00;;;;;;;;;;5065511;28;20230;-71
2022/05/25 12:02:55;;;;;;;1.35;0.98;;;;;;;;;;5035832;28;20306;-71
2022/05/25 12:05:32;;;;;;;2.05;1.42;;;;;;;;;;5045251;28;20215;-72
2022/05/25 12:08:03;;;;;;;1.42;0.95;;;;;;;;;;5062038;28;20227;-71
2022/05/25 12:10:42;;;;;;;3.10;1.08;;;;;;;;;;5057637;28;20235;-70
2022/05/25 12:13:15;;;;;;;2.50;1.20;;;;;;;;;;5048588;28;20237;-72
2022/05/25 12:16:02;;;;;;;2.40;1.20;;;;;;;;;;5045710;28;20265;-71
2022/05/25 12:18:44;;;;;;;1.45;1.30;;;;;;;;;;5054810;28;20723;-71
2022/05/25 12:21:40;;;;;;;2.45;1.20;;;;;;;;;;5046308;28;20218;-72
2022/05/25 12:24:13;;;;;;;3.20;1.60;;;;;;;;;;5057995;28;20242;-69
2022/05/25 12:26:39;;;;;;;2.63;1.60;;;;;;;;;;5046654;28;20254;-70
2022/05/25 12:29:30;;;;;;;2.53;1.40;;;;;;;;;;5030749;28;20222;-71
2022/05/25 12:31:58;;;;;;;1.85;1.25;;;;;;;;;;5058324;28;20227;-71
2022/05/25 12:34:36;;;;;;;3.85;1.50;;;;;;;;;;5058572;28;20223;-71
2022/05/25 12:37:01;;;;;;;2.28;1.20;;;;;;;;;;5048408;28;20238;-71
2022/05/25 12:39:42;;;;;;;1.77;1.45;;;;;;;;;;5056052;28;20219;-70
2022/05/25 12:42:22;;;;;;;2.47;1.35;;;;;;;;;;5053527;28;20271;-70
2022/05/25 12:50:48;;;;;;;2.30;1.35;;;;;;;;;;5046461;28;20231;-70
2022/05/25 12:53:37;;;;;;;2.83;1.20;;;;;;;;;;5056947;28;20222;-70
2022/05/25 12:56:17;;;;;;;0.80;0.80;;;;;;;;;;5047275;28;20223;-71
2022/05/25 12:58:50;;;;;;;1.08;1.08;;;;;;;;;;5056040;28;20231;-71
2022/05/25 13:01:23;;;;;;;1.38;1.00;;;;;;;;;;5035076;28;20649;-70
2022/05/25 13:03:48;;;;;;;1.00;1.00;;;;;;;;;;5065875;28;20227;-72
2022/05/25 13:06:29;;;;;;;1.67;1.10;;;;;;;;;;5066202;28;20730;-72
2022/05/25 13:08:58;;;;;;;1.38;1.00;;;;;;;;;;5057433;28;20226;-72
2022/05/25 13:11:36;;;;;;;1.60;0.90;;;;;;;;;;5055447;28;20717;-70
2022/05/25 13:14:06;;;;;;;1.63;0.90;;;;;;;;;;5056328;28;20234;-72
2022/05/25 13:16:41;;;;;;;1.95;0.90;;;;;;;;;;5057796;28;20226;-71
2022/05/25 13:19:34;;;;;;;1.17;1.08;;;;;;;;;;5070426;28;20235;-71
2022/05/25 13:22:02;;;;;;;1.08;0.90;;;;;;;;;;5043650;28;20306;-70
2022/05/25 13:24:43;;;;;;;3.45;1.50;;;;;;;;;;5067205;28;20306;-72
2022/05/25 13:27:16;;;;;;;4.05;1.35;;;;;;;;;;5062934;28;20215;-71
2022/05/25 13:29:53;;;;;;;1.17;1.08;;;;;;;;;;5064535;28;20234;-72
2022/05/25 13:32:33;;;;;;;2.38;1.10;;;;;;;;;;5050652;28;20221;-72
2022/05/25 13:35:03;;;;;;;1.42;1.20;;;;;;;;;;5073944;27;20704;-70
2022/05/25 13:37:31;;;;;;;2.03;1.20;;;;;;;;;;5029639;28;20226;-70
2022/05/25 13:39:59;;;;;;;3.38;1.10;;;;;;;;;;5046962;28;20231;-70
2022/05/25 13:42:31;;;;;;;1.15;1.02;;;;;;;;;;5023037;28;20219;-72
2022/05/25 13:45:02;;;;;;;1.33;0.90;;;;;;;;;;5062122;28;20216;-71
2022/05/25 13:47:30;;;;;;;1.10;1.00;;;;;;;;;;5024678;28;20685;-72
2022/05/25 13:50:00;;;;;;;1.25;1.10;;;;;;;;;;5058030;28;20288;-73
2022/05/25 13:52:33;;;;;;;1.08;0.95;;;;;;;;;;5061975;28;20256;-72
2022/05/25 13:55:02;;;;;;;3.28;1.17;;;;;;;;;;5051560;28;20215;-73
2022/05/25 13:57:40;;;;;;;1.00;0.90;;;;;;;;;;5061112;28;20708;-70
2022/05/25 14:00:25;;;;;;;1.08;0.90;;;;;;;;;;5052528;28;20242;-71
2022/05/25 14:02:58;;;;;;;1.10;0.85;;;;;;;;;;5045046;28;20219;-71
2022/05/25 14:05:33;;;;;;;3.55;0.80;;;;;;;;;;5049273;28;20218;-70
2022/05/25 14:08:13;;;;;;;3.33;0.77;;;;;;;;;;5048896;28;20215;-72
2022/05/25 14:10:58;;;;;;;1.33;0.77;;;;;;;;;;5047490;28;20238;-71
2022/05/25 14:13:36;;;;;;;1.20;0.60;;;;;;;;;;5051375;28;20219;-71
2022/05/25 14:16:10;;;;;;;0.55;0.52;;;;;;;;;;5048050;28;20219;-73
2022/05/25 14:18:58;;;;;;;2.90;0.82;;;;;;;;;;5064546;28;20247;-71
2022/05/25 14:21:41;;;;;;;0.82;0.60;;;;;;;;;;5056146;28;20215;-73
2022/05/25 14:24:16;;;;;;;1.15;0.77;;;;;;;;;;5064053;28;20219;-71
2022/05/25 14:27:26;;;;;;;1.95;0.93;;;;;;;;;;5048983;28;20242;-71
2022/05/25 14:29:54;;;;;;;1.90;0.70;;;;;;;;;;5062370;28;20250;-72
2022/05/25 14:32:29;;;;;;;0.88;0.80;;;;;;;;;;5011769;28;20222;-72
2022/05/25 14:34:58;;;;;;;1.48;0.70;;;;;;;;;;5068372;28;20314;-72
2022/05/25 14:37:30;;;;;;;1.42;0.73;;;;;;;;;;5056569;28;20237;-70
2022/05/25 14:39:59;;;;;;;1.48;0.68;;;;;;;;;;5027311;28;20211;-70
2022/05/25 14:42:30;;;;;;;0.70;0.70;;;;;;;;;;5062776;28;20750;-72
2022/05/25 14:45:04;;;;;;;1.00;0.70;;;;;;;;;;5034316;28;20299;-69
2022/05/25 14:47:50;;;;;;;0.70;0.70;;;;;;;;;;5061105;28;20215;-71
2022/05/25 14:50:20;;;;;;;2.83;0.80;;;;;;;;;;5064910;28;20215;-71
2022/05/25 14:53:12;;;;;;;0.70;0.63;;;;;;;;;;5067286;28;20218;-72
2022/05/25 14:55:50;;;;;;;0.65;0.65;;;;;;;;;;5055292;28;20575;-72
2022/05/25 14:58:21;;;;;;;1.23;0.75;;;;;;;;;;5056235;28;20227;-71
2022/05/25 15:01:05;;;;;;;1.65;0.88;;;;;;;;;;5069273;28;20235;-72
2022/05/25 15:03:41;;;;;;;0.60;0.60;;;;;;;;;;5059822;28;20230;-70
2022/05/25 15:06:10;;;;;;;1.52;0.73;;;;;;;;;;5042769;28;20215;-71
2022/05/25 15:08:37;;;;;;;1.10;0.77;;;;;;;;;;5059293;28;20313;-71
2022/05/25 15:11:31;;;;;;;1.60;0.70;;;;;;;;;;5049534;28;20269;-71
2022/05/25 15:19:48;;;;;;;2.50;0.88;;;;;;;;;;5058488;28;20284;-71
2022/05/25 15:22:24;;;;;;;0.63;0.63;;;;;;;;;;5044899;28;20215;-73
2022/05/25 15:25:10;;;;;;;1.52;0.90;;;;;;;;;;5047784;28;20222;-71
2022/05/25 15:27:38;;;;;;;1.35;0.70;;;;;;;;;;5046901;28;20247;-70
2022/05/25 15:30:20;;;;;;;1.27;0.90;;;;;;;;;;5044548;28;20215;-71
2022/05/25 15:32:45;;;;;;;1.25;0.77;;;;;;;;;;5040649;28;20235;-71
2022/05/25 15:35:13;;;;;;;1.33;0.80;;;;;;;;;;5033861;28;20288;-71
2022/05/25 15:37:39;;;;;;;1.20;0.70;;;;;;;;;;5042251;28;21010;-71
2022/05/25 15:40:07;;;;;;;0.85;0.75;;;;;;;;;;5042490;28;20212;-73
2022/05/25 15:42:37;;;;;;;1.45;0.80;;;;;;;;;;5029424;28;20234;-73
2022/05/25 15:45:03;;;;;;;1.55;0.70;;;;;;;;;;5045996;28;20277;-72
2022/05/25 15:47:29;;;;;;;1.23;0.60;;;;;;;;;;5062244;28;20215;-71